ESNK/KRF METAR and TAF weather

Enter ICAO airport designator
Station Type Date Time Source
ESNK METAR 2019/02/23 17:20 UTC NOAA

ESNK 231720Z AUTO 01004KT 9000 OVC170/// 00/M00 Q1025


Station Type Date Time Source
ESNK Decoded METAR 2019/02/23 17:20 UTC NOAA

Kramfors Flygplats, Sweden (ESNK) 63-03N 017-46E 19M
Feb 23, 2019 - 12:20 PM EST / 2019.02.23 1720 UTC
Wind: from the N (010 degrees) at 5 MPH (4 KT):0
Visibility: 5 mile(s):0
Sky conditions: overcast
Temperature: 32 F (0 C)
Windchill: 26 F (-3 C):1
Dew Point: 32 F (0 C)
Relative Humidity: 100%
Pressure (altimeter): 30.27 in. Hg (1025 hPa)
ob: ESNK 231720Z AUTO 01004KT 9000 OVC170/// 00/M00 Q1025
cycle: 17

Station Type Date Time Source
ESNK TAF 2017/12/15 06:00 UTC NOAA

TAF
AMD ESNK 150654Z 1506/1521 35005KT 6000 -SN BKN016
TEMPO 1506/1521 2000 SN SG VV009


Example: see airport list